EW7355 Oak Hill VA US current weather conditions

sailwx.info

Wind from 263 at 0 knots gusting 3

Air temperature 3.3° C
Dewpoint -7.5° C

Last reported at 2019-Dec-11 22:03 UTC.
Time now 2019-Dec-11 23:02 UTC

Location: N 38°55' W 077°25'.
View on Google Maps.

See reports from other nearby stations

  
Tides and Currents Weather Stations Pressure Air Temp Water Temp Dewpoint Dewpoint Depression Visibility Wind Speed Wind Dir Waves Ship Positions
date/time (UTC)wind fromknots sea level pressurealtimeterstation pressurevisibilityair tempwater tempwave heightnotes
2019-Dec-11 22:03 263 0 gusting 3 3.3
2019-Dec-11 21:47 263 0 gusting 6 3.3
2019-Dec-11 21:34 239 3.9
2019-Dec-11 21:18 216 0 gusting 6 3.9
2019-Dec-11 21:12 259 2 gusting 9 4.4
2019-Dec-11 21:07 234 3 gusting 9 4.4
2019-Dec-11 21:03 291 3 gusting 9 3.9
2019-Dec-11 20:57 281 2 gusting 8 4.4
2019-Dec-11 20:52 272 1 gusting 6 4.4
2019-Dec-11 20:47 228 0 gusting 6 3.9
2019-Dec-11 20:32 236 0 gusting 6 3.9
2019-Dec-11 20:27 205 1 gusting 8 4.4
2019-Dec-11 20:17 265 2 gusting 8 3.9
2019-Dec-11 20:12 241 1 gusting 6 4.4
2019-Dec-11 20:02 279 2 gusting 9 4.4
2019-Dec-11 19:42 240 3 gusting 9 3.9
2019-Dec-11 19:32 212 2 gusting 7 3.9
2019-Dec-11 19:16 195 4 gusting 10 3.9
2019-Dec-11 19:07 215 1 gusting 7 4.4
2019-Dec-11 19:01 299 3.9
2019-Dec-11 18:57 209 0 gusting 7 3.9
2019-Dec-11 18:52 234 1 gusting 7 3.9
2019-Dec-11 18:47 266 1 gusting 6 3.9
2019-Dec-11 18:42 162 1 gusting 7 3.9
2019-Dec-11 18:37 266 1 gusting 7 3.3
2019-Dec-11 18:32 285 2 gusting 7 3.3
2019-Dec-11 18:22 239 2 gusting 11 3.3
2019-Dec-11 18:17 293 2 gusting 10 3.3
2019-Dec-11 18:07 282 4 gusting 8 2.8
2019-Dec-11 18:02 284 3 gusting 8 2.8
2019-Dec-11 17:57 239 2 gusting 9 2.8
2019-Dec-11 17:47 268 4 gusting 12 2.8
2019-Dec-11 17:31 298 3 gusting 9 2.2
2019-Dec-11 17:27 301 3 gusting 10 2.2
2019-Dec-11 17:22 260 3 gusting 11 2.2
2019-Dec-11 17:17 221 4 gusting 11 2.2
2019-Dec-11 17:07 263 3 gusting 10 2.2
2019-Dec-11 17:01 274 3 gusting 10 1.7
2019-Dec-11 16:52 318 5 gusting 13 1.7
2019-Dec-11 16:47 282 5 gusting 11 1.7
2019-Dec-11 16:31 305 5 gusting 12 1.7
2019-Dec-11 16:22 255 5 gusting 13 1.7
2019-Dec-11 16:16 294 3 gusting 11 1.1
2019-Dec-11 16:12 309 5 gusting 11 1.7
2019-Dec-11 16:07 292 4 gusting 13 1.7
2019-Dec-11 16:02 235 5 gusting 13 1.7
2019-Dec-11 15:57 273 6 gusting 13 1.7
2019-Dec-11 15:45 297 3 gusting 10 1.1
2019-Dec-11 15:37 305 5 gusting 13 1.1
2019-Dec-11 15:31 265 2 gusting 11 1.1
2019-Dec-11 15:22 284 5 gusting 13 1.1
2019-Dec-11 15:17 314 5 gusting 13 1.1
2019-Dec-11 15:12 254 5 gusting 12 1.1
2019-Dec-11 15:07 281 6 gusting 13 1.1
2019-Dec-11 15:02 260 5 gusting 13 1.1
2019-Dec-11 14:57 293 5 gusting 13 1.1
2019-Dec-11 14:46 231 5 gusting 11 0.6
2019-Dec-11 14:42 242 4 gusting 11 1.1
2019-Dec-11 14:37 275 4 gusting 11 1.1
2019-Dec-11 14:31 266 3 gusting 11 0.6
2019-Dec-11 14:27 285 4 gusting 11 0.6
2019-Dec-11 14:17 328 5 gusting 12 0.6
2019-Dec-11 14:07 306 5 gusting 12 0.6
2019-Dec-11 14:01 264 3 gusting 12 -0.0
2019-Dec-11 13:57 262 6 gusting 13 0.6
2019-Dec-11 13:52 292 5 gusting 13 0.6
2019-Dec-11 13:47 302 4 gusting 10 -0.0
2019-Dec-11 13:37 277 3 gusting 9 -0.0
2019-Dec-11 13:30 280 3 gusting 9 -0.6
2019-Dec-11 13:16 273 0 gusting 8 -0.6
2019-Dec-11 13:12 276 2 gusting 7 -0.0
2019-Dec-11 13:07 338 2 gusting 10 -0.0
2019-Dec-11 13:00 264 2 gusting 10 -0.0
2019-Dec-11 12:57 338 2 gusting 10 -0.0
2019-Dec-11 12:52 338 2 gusting 6 -0.0
2019-Dec-11 12:47 243 1 gusting 6 -0.0
2019-Dec-11 12:42 255 1 gusting 6 -0.0
2019-Dec-11 12:37 262 1 gusting 4 -0.0
2019-Dec-11 12:32 279 0 gusting 4 -0.0
2019-Dec-11 12:22 338 0 gusting 6 0.6
2019-Dec-11 12:17 244 0 gusting 6 0.6
2019-Dec-11 12:15 255 0 gusting 6 -0.0
2019-Dec-11 12:02 338 1 gusting 8 0.6
2019-Dec-11 12:00 338 1 gusting 5 -0.0
2019-Dec-11 11:52 338 2 gusting 8 0.6
2019-Dec-11 11:48 338 2 gusting 8 -0.0
2019-Dec-11 11:31 338 2 gusting 7 -0.0
2019-Dec-11 11:22 338 2 gusting 6 -0.0
2019-Dec-11 11:17 338 2 gusting 6 -0.0
2019-Dec-11 11:12 338 1 gusting 5 -0.0
2019-Dec-11 11:07 338 1 gusting 5 -0.0
2019-Dec-11 11:01 338 2 gusting 5 -0.0
2019-Dec-11 10:57 338 1 gusting 5 -0.0
2019-Dec-11 10:52 338 1 gusting 5 -0.0
2019-Dec-11 10:49 338 0 gusting 5 -0.0
2019-Dec-11 10:37 338 0 gusting 5 -0.0
2019-Dec-11 10:34 338 0 gusting 5 -0.6
2019-Dec-11 10:19 252 0 gusting 4 -0.6
2019-Dec-11 10:07 321 2 gusting 12 -0.0
2019-Dec-11 10:02 282 2 gusting 12 -0.6
2019-Dec-11 09:52 338 2 gusting 8 -0.0
2019-Dec-11 09:46 338 0 gusting 6 -0.0
2019-Dec-11 09:37 338 1 gusting 4 -0.0
2019-Dec-11 09:32 338 -0.0
2019-Dec-11 09:27 338 1 gusting 5 -0.0
2019-Dec-11 09:22 338 1 gusting 5 -0.0
2019-Dec-11 09:17 338 1 gusting 4 -0.6
2019-Dec-11 09:12 338 0 gusting 4 -0.0
2019-Dec-11 09:02 338 0 gusting 5 -0.6
2019-Dec-11 08:57 338 0 gusting 5 -0.0
2019-Dec-11 08:47 338 -0.6
2019-Dec-11 08:42 338 1 gusting 6 -0.0
2019-Dec-11 08:32 338 0 gusting 5 -0.6
2019-Dec-11 08:17 338 0 gusting 5 -0.6
2019-Dec-11 08:12 338 3 gusting 8 -0.0
2019-Dec-11 08:02 253 4 gusting 10 -0.0
2019-Dec-11 07:57 277 3 gusting 10 -0.0
2019-Dec-11 07:47 262 4 gusting 9 -0.0
2019-Dec-11 07:32 280 6 gusting 16 0.6
2019-Dec-11 07:22 264 6 gusting 14 1.1
2019-Dec-11 07:17 292 5 gusting 14 1.7
2019-Dec-11 07:12 280 4 gusting 13 1.7
2019-Dec-11 07:07 275 5 gusting 13 1.7
2019-Dec-11 07:02 232 2 gusting 13 1.7
2019-Dec-11 06:47 314 1.1
2019-Dec-11 06:37 306 1.7
2019-Dec-11 06:31 338 1.1
2019-Dec-11 06:27 338 1.1
2019-Dec-11 06:22 338 1.1
2019-Dec-11 06:17 338 1.1
2019-Dec-11 06:12 262 0 gusting 8 1.1
2019-Dec-11 06:07 266 1 gusting 10 1.7
2019-Dec-11 06:00 338 2 gusting 10 1.1
2019-Dec-11 05:57 268 4 gusting 10 1.7
2019-Dec-11 05:52 338 3 gusting 10 1.7
2019-Dec-11 05:46 338 0 gusting 7 1.7
2019-Dec-11 05:42 338 2 gusting 9 1.7
2019-Dec-11 05:37 338 2 gusting 9 1.7
2019-Dec-11 05:32 338 3 gusting 11 1.7
2019-Dec-11 05:22 338 5 gusting 13 2.2
2019-Dec-11 05:17 204 6 gusting 13 2.2
2019-Dec-11 05:12 338 5 gusting 13 2.8
2019-Dec-11 05:00 301 5 gusting 12 2.8
2019-Dec-11 04:52 292 4 gusting 12 2.8
2019-Dec-11 04:47 284 5 gusting 14 3.3
2019-Dec-11 04:42 338 6 gusting 14 3.3
2019-Dec-11 04:37 338 6 gusting 14 3.3
2019-Dec-11 04:32 338 5 gusting 11 3.3
2019-Dec-11 04:30 338 3 gusting 11 2.8
2019-Dec-11 04:22 338 4 gusting 10 3.3
2019-Dec-11 04:17 338 4 gusting 15 3.3
2019-Dec-11 04:12 325 4 gusting 15 3.3
2019-Dec-11 04:05 338 7 gusting 15 3.3
2019-Dec-11 04:02 338 6 gusting 12 3.9
2019-Dec-11 03:57 338 6 gusting 11 3.9
2019-Dec-11 03:52 326 6 gusting 11 3.9
2019-Dec-11 03:47 338 5 gusting 10 3.3
2019-Dec-11 03:37 305 5 gusting 10 3.9
2019-Dec-11 03:32 349 6 gusting 10 3.9
2019-Dec-11 03:27 338 3 gusting 10 3.9
2019-Dec-11 03:19 338 5 gusting 14 3.9
2019-Dec-11 03:12 338 6 gusting 14 3.9
2019-Dec-11 03:07 338 6 gusting 13 4.4
2019-Dec-11 03:02 338 5 gusting 12 4.4
2019-Dec-11 02:57 262 6 gusting 13 4.4
2019-Dec-11 02:49 338 6 gusting 13 4.4
2019-Dec-11 02:42 289 6 gusting 19 5.0
2019-Dec-11 02:32 321 6 gusting 19 5.0
2019-Dec-11 02:22 267 6 gusting 13 5.6
2019-Dec-11 02:17 314 4 gusting 11 5.6
2019-Dec-11 02:07 287 3 gusting 11 6.1
2019-Dec-11 02:02 295 4 gusting 11 6.1
2019-Dec-11 01:47 292 2 gusting 10 6.7
2019-Dec-11 01:42 273 3 gusting 11 6.7
2019-Dec-11 01:32 270 2 gusting 11 6.7
2019-Dec-11 01:22 314 3 gusting 11 6.7
2019-Dec-11 01:16 295 2 gusting 12 6.7
2019-Dec-11 01:12 278 3 gusting 9 6.7
2019-Dec-11 01:07 303 3 gusting 9 6.7
2019-Dec-11 01:02 309 2 gusting 11 6.7
2019-Dec-11 00:57 296 3 gusting 11 6.7
2019-Dec-11 00:52 318 4 gusting 12 7.2
2019-Dec-11 00:46 343 2 gusting 12 6.7
2019-Dec-11 00:42 291 5 gusting 12 7.2
2019-Dec-11 00:37 311 5 gusting 15 7.2
2019-Dec-11 00:32 301 6 gusting 15 7.2
2019-Dec-11 00:27 294 5 gusting 15 7.8
2019-Dec-11 00:22 291 4 gusting 13 7.8
2019-Dec-11 00:17 290 5 gusting 13 7.8
2019-Dec-11 00:12 307 5 gusting 13 8.3
2019-Dec-11 00:00 293 4 gusting 11 8.9
2019-Dec-10 23:57 318 3 gusting 11 8.9
2019-Dec-10 23:52 287 5 gusting 11 8.9
2019-Dec-10 23:45 304 6 gusting 11 8.9
2019-Dec-10 23:42 286 5 gusting 13 9.4
2019-Dec-10 23:32 333 6 gusting 13 9.4
2019-Dec-10 23:27 286 5 gusting 13 9.4
2019-Dec-10 23:17 281 3 gusting 13 10.0
2019-Dec-10 23:15 355 4 gusting 13 10.0
2019-Dec-10 23:07 278 3 gusting 12 10.0
2019-Dec-10 23:03 296 2 gusting 12 10.0
2019-Dec-10 22:47 287 5 gusting 12 10.6
2019-Dec-10 22:37 255 2 gusting 6 11.1
2019-Dec-10 22:33 293 2 gusting 5 10.6
2019-Dec-10 22:27 272 2 gusting 10 11.1
2019-Dec-10 22:22 271 3 gusting 10 11.1
2019-Dec-10 22:18 268 4 gusting 10 11.1
2019-Dec-10 22:12 285 3 gusting 10 11.1
2019-Dec-10 22:07 303 1 gusting 6 11.7
2019-Dec-10 22:04 355 0 gusting 5 11.1
2019-Dec-10 21:37 277 0 gusting 2 11.7
2019-Dec-10 21:32 275 11.1
2019-Dec-10 21:27 277 11.7
2019-Dec-10 21:17 279 11.7
2019-Dec-10 21:12 279 11.7
2019-Dec-10 21:02 277 0 gusting 6 11.7
2019-Dec-10 20:57 272 2 gusting 11 11.7
2019-Dec-10 20:52 263 3 gusting 11 11.7
2019-Dec-10 20:47 271 4 gusting 11 11.7
2019-Dec-10 20:42 218 3 gusting 11 12.2
2019-Dec-10 20:37 293 3 gusting 9 12.2
2019-Dec-10 20:31 280 2 gusting 7 12.2
2019-Dec-10 20:27 243 1 gusting 6 12.8
2019-Dec-10 20:17 245 12.2
2019-Dec-10 20:12 232 12.8
2019-Dec-10 20:07 245 12.8
2019-Dec-10 20:02 246 12.8
2019-Dec-10 19:52 224 12.8
2019-Dec-10 19:46 224 12.2
2019-Dec-10 19:42 224 12.8
2019-Dec-10 19:37 188 12.8
2019-Dec-10 19:32 188 12.8
2019-Dec-10 19:27 243 12.8
2019-Dec-10 19:17 233 12.2
2019-Dec-10 19:07 255 0 gusting 4 12.8
2019-Dec-10 19:01 309 0 gusting 4 12.8
2019-Dec-10 18:47 156 12.8
2019-Dec-10 18:37 174 0 gusting 4 12.8
2019-Dec-10 18:31 187 0 gusting 5 12.8
2019-Dec-10 18:27 161 0 gusting 6 12.8
2019-Dec-10 18:17 156 0 gusting 6 12.8
2019-Dec-10 18:12 162 0 gusting 4 12.8
2019-Dec-10 18:02 166 0 gusting 4 12.8
2019-Dec-10 17:57 224 0 gusting 4 12.8
2019-Dec-10 17:52 187 0 gusting 6 12.8
2019-Dec-10 17:47 152 0 gusting 6 12.8
2019-Dec-10 17:37 190 0 gusting 3 12.8
2019-Dec-10 17:32 174 0 gusting 3 12.8
2019-Dec-10 17:22 198 0 gusting 2 12.8
2019-Dec-10 17:16 201 12.8
2019-Dec-10 17:02 259 0 gusting 6 12.8
2019-Dec-10 16:57 231 0 gusting 6 12.8
2019-Dec-10 16:52 218 0 gusting 4 12.8
2019-Dec-10 16:47 219 0 gusting 4 12.8
2019-Dec-10 16:42 194 0 gusting 4 12.8
2019-Dec-10 16:32 185 0 gusting 3 12.8
2019-Dec-10 16:22 216 0 gusting 3 12.8
2019-Dec-10 16:17 253 12.8
2019-Dec-10 16:07 203 0 gusting 6 13.3
2019-Dec-10 16:02 175 0 gusting 4 13.3
2019-Dec-10 15:57 174 13.3
2019-Dec-10 15:52 152 13.3
2019-Dec-10 15:45 193 12.8
2019-Dec-10 15:42 171 1 gusting 7 12.8
2019-Dec-10 15:32 170 0 gusting 7 12.8
2019-Dec-10 15:27 158 12.8
2019-Dec-10 15:22 173 0 gusting 6 12.8
2019-Dec-10 15:15 195 12.8
2019-Dec-10 15:12 141 0 gusting 5 12.8
2019-Dec-10 15:07 193 0 gusting 10 12.8
2019-Dec-10 15:00 211 12.8
2019-Dec-10 14:52 208 0 gusting 6 12.8
2019-Dec-10 14:47 185 0 gusting 6 12.8
2019-Dec-10 14:37 178 0 gusting 5 12.8
2019-Dec-10 14:32 169 0 gusting 6 12.8
2019-Dec-10 14:22 185 0 gusting 6 12.8
2019-Dec-10 14:17 184 0 gusting 6 12.2
2019-Dec-10 14:15 158 0 gusting 6 12.2
2019-Dec-10 14:07 164 0 gusting 8 12.2
2019-Dec-10 14:00 197 12.2
2019-Dec-10 13:52 164 0 gusting 7 12.2
2019-Dec-10 13:45 189 1 gusting 6 11.7
2019-Dec-10 13:37 180 1 gusting 9 12.2
2019-Dec-10 13:30 162 0 gusting 6 11.7
2019-Dec-10 13:22 176 1 gusting 8 11.7
2019-Dec-10 13:17 139 1 gusting 8 11.7
2019-Dec-10 13:07 156 1 gusting 9 11.7
2019-Dec-10 13:00 176 1 gusting 8 11.1
2019-Dec-10 12:52 145 0 gusting 8 11.7
2019-Dec-10 12:46 187 11.1
2019-Dec-10 12:42 187 0 gusting 8 11.1
2019-Dec-10 12:37 136 0 gusting 3 11.1
2019-Dec-10 12:32 162 11.1
2019-Dec-10 12:27 173 11.1
2019-Dec-10 12:22 192 0 gusting 5 11.1
2019-Dec-10 12:17 183 0 gusting 5 11.1
2019-Dec-10 12:12 188 0 gusting 6 11.1
2019-Dec-10 12:03 187 0 gusting 6 11.1
2019-Dec-10 11:57 216 0 gusting 6 11.1
2019-Dec-10 11:52 239 0 gusting 5 11.1
2019-Dec-10 11:47 201 10.6
2019-Dec-10 11:31 174 10.6
2019-Dec-10 11:27 148 0 gusting 6 11.1
2019-Dec-10 11:22 209 0 gusting 6 11.1
2019-Dec-10 11:16 179 10.6
2019-Dec-10 11:12 201 1 gusting 11 11.1
2019-Dec-10 11:07 152 0 gusting 11 11.1
2019-Dec-10 11:02 211 0 gusting 9 11.1
2019-Dec-10 10:57 159 1 gusting 9 11.1
2019-Dec-10 10:52 183 1 gusting 9 11.1
2019-Dec-10 10:47 156 0 gusting 8 10.6
2019-Dec-10 10:32 156 0 gusting 8 10.6
2019-Dec-10 10:27 142 1 gusting 12 11.1
2019-Dec-10 10:22 187 1 gusting 12 11.1
2019-Dec-10 10:16 215 1 gusting 13 10.6
2019-Dec-10 10:07 187 2 gusting 12 10.6
2019-Dec-10 10:02 146 2 gusting 11 10.6
2019-Dec-10 09:47 184 1 gusting 10 10.6
2019-Dec-10 09:42 180 1 gusting 11 10.6
2019-Dec-10 09:37 194 1 gusting 11 10.6
2019-Dec-10 09:32 137 1 gusting 11 10.6
2019-Dec-10 09:27 186 1 gusting 10 11.1
2019-Dec-10 09:17 213 1 gusting 12 10.6
2019-Dec-10 09:12 166 2 gusting 12 11.1
2019-Dec-10 09:07 177 2 gusting 11 11.1
2019-Dec-10 09:02 166 2 gusting 11 11.1
2019-Dec-10 08:57 167 1 gusting 13 11.1
2019-Dec-10 08:52 124 1 gusting 14 11.1
2019-Dec-10 08:47 164 2 gusting 14 11.1
2019-Dec-10 08:42 168 3 gusting 14 11.1
2019-Dec-10 08:37 130 3 gusting 14 11.1
2019-Dec-10 08:30 182 1 gusting 13 10.6
2019-Dec-10 08:17 183 2 gusting 12 11.1
2019-Dec-10 08:07 187 2 gusting 14 11.1
2019-Dec-10 08:02 166 3 gusting 14 11.1
2019-Dec-10 07:57 147 3 gusting 10 11.1
2019-Dec-10 07:52 176 2 gusting 11 11.1
2019-Dec-10 07:47 161 2 gusting 11 11.1
2019-Dec-10 07:37 178 2 gusting 12 11.1
2019-Dec-10 07:30 145 2 gusting 12 10.6
2019-Dec-10 07:22 172 3 gusting 16 11.1
2019-Dec-10 07:17 149 3 gusting 18 11.1
2019-Dec-10 07:12 190 3 gusting 18 10.6
2019-Dec-10 07:07 212 3 gusting 18 10.6
2019-Dec-10 07:00 191 2 gusting 8 10.6
2019-Dec-10 06:52 100 3 gusting 12 10.6
2019-Dec-10 06:45 165 2 gusting 9 10.6
2019-Dec-10 06:42 195 3 gusting 12 10.6
2019-Dec-10 06:37 208 2 gusting 13 10.6
2019-Dec-10 06:32 191 2 gusting 13 10.6
2019-Dec-10 06:30 164 1 gusting 13 10.6
2019-Dec-10 06:15 160 1 gusting 11 10.6
2019-Dec-10 06:07 163 1 gusting 11 10.6
2019-Dec-10 06:00 163 3 gusting 10 10.6
2019-Dec-10 05:46 162 1 gusting 11 10.6
2019-Dec-10 05:42 126 3 gusting 13 10.6
2019-Dec-10 05:37 155 2 gusting 13 10.6
2019-Dec-10 05:31 170 0 gusting 10 10.6
2019-Dec-10 05:22 169 2 gusting 11 10.6
2019-Dec-10 05:17 173 0 gusting 11 10.0
2019-Dec-10 05:03 187 4 gusting 10 10.0
2019-Dec-10 04:57 168 3 gusting 13 10.6
2019-Dec-10 04:46 191 2 gusting 11 10.0
2019-Dec-10 04:42 151 2 gusting 13 10.6
2019-Dec-10 04:32 146 2 gusting 13 10.6
2019-Dec-10 04:27 127 2 gusting 15 10.6
2019-Dec-10 04:17 154 4 gusting 11 10.6
2019-Dec-10 04:07 166 3 gusting 18 10.6
2019-Dec-10 04:02 188 2 gusting 19 10.6
2019-Dec-10 03:57 118 4 gusting 12 10.6
2019-Dec-10 03:47 186 3 gusting 12 10.6
2019-Dec-10 03:32 153 3 gusting 11 10.6
2019-Dec-10 03:27 185 2 gusting 11 10.6
2019-Dec-10 03:17 202 2 gusting 11 10.6
2019-Dec-10 03:12 168 2 gusting 11 10.6
2019-Dec-10 03:02 159 2 gusting 14 10.6
2019-Dec-10 02:46 203 1 gusting 10 10.0
2019-Dec-10 02:42 166 2 gusting 14 10.0
2019-Dec-10 02:37 191 2 gusting 14 10.0
2019-Dec-10 02:31 176 0 gusting 8 9.4
2019-Dec-10 02:27 183 2 gusting 14 10.0
2019-Dec-10 02:22 176 1 gusting 14 10.0
2019-Dec-10 02:17 206 1 gusting 11 9.4
2019-Dec-10 02:07 181 1 gusting 10 9.4
2019-Dec-10 02:02 176 2 gusting 10 9.4
2019-Dec-10 01:47 187 3 gusting 11 9.4
2019-Dec-10 01:37 172 2 gusting 12 8.9
2019-Dec-10 01:32 176 1 gusting 12 8.9
2019-Dec-10 01:27 155 2 gusting 12 8.9
2019-Dec-10 01:15 173 0 gusting 8 8.3
2019-Dec-10 01:12 220 1 gusting 10 8.9
2019-Dec-10 01:07 191 1 gusting 14 8.9
2019-Dec-10 01:02 179 1 gusting 14 8.3
2019-Dec-10 00:47 170 5 gusting 15 8.3
2019-Dec-10 00:42 216 3 gusting 14 8.3
2019-Dec-10 00:32 201 2 gusting 13 8.3
2019-Dec-10 00:22 168 2 gusting 13 8.3
2019-Dec-10 00:15 156 1 gusting 13 7.8
2019-Dec-10 00:02 183 3 gusting 12 8.3
2019-Dec-09 23:52 185 3 gusting 13 8.3
2019-Dec-09 23:45 161 3 gusting 13 7.8
2019-Dec-09 23:42 172 3 gusting 15 8.3
2019-Dec-09 23:37 145 2 gusting 15 8.3
2019-Dec-09 23:32 168 2 gusting 13 7.8
2019-Dec-09 23:17 188 3 gusting 13 7.8
2019-Dec-09 23:12 153 3 gusting 16 7.8
2019-Dec-09 23:02 143 2 gusting 23 7.8